sensor_id;sensor_type;location;lat;lon;timestamp;pressure;altitude;pressure_sealevel;temperature;humidity
8051;BME280;4068;42.158;24.732;2023-04-20T00:01:23;99235.75;;;9.57;100.00
8051;BME280;4068;42.158;24.732;2023-04-20T00:03:49;99231.78;;;9.52;100.00
8051;BME280;4068;42.158;24.732;2023-04-20T00:06:15;99229.63;;;9.57;100.00
8051;BME280;4068;42.158;24.732;2023-04-20T00:08:41;99219.97;;;9.56;100.00
8051;BME280;4068;42.158;24.732;2023-04-20T00:11:08;99228.75;;;9.56;100.00
8051;BME280;4068;42.158;24.732;2023-04-20T00:13:33;99226.84;;;9.58;100.00
8051;BME280;4068;42.158;24.732;2023-04-20T00:15:59;99233.56;;;9.62;100.00
8051;BME280;4068;42.158;24.732;2023-04-20T00:18:24;99229.25;;;9.61;100.00
8051;BME280;4068;42.158;24.732;2023-04-20T00:20:50;99199.09;;;9.41;100.00
8051;BME280;4068;42.158;24.732;2023-04-20T00:23:15;99230.41;;;9.68;100.00
8051;BME280;4068;42.158;24.732;2023-04-20T00:25:41;99227.06;;;9.66;100.00
8051;BME280;4068;42.158;24.732;2023-04-20T00:28:06;99198.47;;;9.49;100.00
8051;BME280;4068;42.158;24.732;2023-04-20T00:30:32;99225.25;;;9.67;100.00
8051;BME280;4068;42.158;24.732;2023-04-20T00:32:57;99235.00;;;9.66;100.00
8051;BME280;4068;42.158;24.732;2023-04-20T00:35:23;99215.03;;;9.62;100.00
8051;BME280;4068;42.158;24.732;2023-04-20T00:37:48;99230.16;;;9.72;100.00
8051;BME280;4068;42.158;24.732;2023-04-20T00:40:13;99225.97;;;9.69;100.00
8051;BME280;4068;42.158;24.732;2023-04-20T00:42:39;99216.34;;;9.68;100.00
8051;BME280;4068;42.158;24.732;2023-04-20T00:45:05;99228.00;;;9.77;100.00
8051;BME280;4068;42.158;24.732;2023-04-20T00:47:31;99228.56;;;9.80;100.00
8051;BME280;4068;42.158;24.732;2023-04-20T00:49:56;99230.50;;;9.78;100.00
8051;BME280;4068;42.158;24.732;2023-04-20T00:52:22;99235.81;;;9.78;100.00
8051;BME280;4068;42.158;24.732;2023-04-20T00:54:48;99223.22;;;9.71;100.00
8051;BME280;4068;42.158;24.732;2023-04-20T00:57:14;99233.19;;;9.67;100.00
8051;BME280;4068;42.158;24.732;2023-04-20T00:59:42;99225.50;;;9.64;100.00
8051;BME280;4068;42.158;24.732;2023-04-20T01:02:08;99230.78;;;9.64;100.00
8051;BME280;4068;42.158;24.732;2023-04-20T01:04:34;99228.94;;;9.76;100.00
8051;BME280;4068;42.158;24.732;2023-04-20T01:07:04;99226.63;;;9.82;100.00
8051;BME280;4068;42.158;24.732;2023-04-20T01:09:29;99225.28;;;9.88;100.00
8051;BME280;4068;42.158;24.732;2023-04-20T01:11:55;99227.91;;;9.99;100.00
8051;BME280;4068;42.158;24.732;2023-04-20T01:14:20;99223.75;;;10.07;100.00
8051;BME280;4068;42.158;24.732;2023-04-20T01:16:46;99221.81;;;10.09;100.00
8051;BME280;4068;42.158;24.732;2023-04-20T01:19:12;99227.25;;;10.07;100.00
8051;BME280;4068;42.158;24.732;2023-04-20T01:21:37;99218.72;;;10.04;100.00
8051;BME280;4068;42.158;24.732;2023-04-20T01:24:03;99219.69;;;10.02;100.00
8051;BME280;4068;42.158;24.732;2023-04-20T01:26:29;99219.00;;;10.00;100.00
8051;BME280;4068;42.158;24.732;2023-04-20T01:28:54;99219.28;;;10.07;100.00
8051;BME280;4068;42.158;24.732;2023-04-20T01:31:20;99216.44;;;9.99;100.00
8051;BME280;4068;42.158;24.732;2023-04-20T01:33:46;99209.56;;;10.08;100.00
8051;BME280;4068;42.158;24.732;2023-04-20T01:36:11;99218.53;;;10.16;100.00
8051;BME280;4068;42.158;24.732;2023-04-20T01:38:37;99204.06;;;10.21;100.00
8051;BME280;4068;42.158;24.732;2023-04-20T01:41:07;99214.38;;;10.35;100.00
8051;BME280;4068;42.158;24.732;2023-04-20T01:43:34;99212.00;;;10.42;100.00
8051;BME280;4068;42.158;24.732;2023-04-20T01:46:00;99212.34;;;10.48;100.00
8051;BME280;4068;42.158;24.732;2023-04-20T01:48:26;99213.63;;;10.54;100.00
8051;BME280;4068;42.158;24.732;2023-04-20T01:50:52;99210.56;;;10.59;100.00
8051;BME280;4068;42.158;24.732;2023-04-20T01:53:17;99217.16;;;10.55;100.00
8051;BME280;4068;42.158;24.732;2023-04-20T01:55:43;99207.03;;;10.48;100.00
8051;BME280;4068;42.158;24.732;2023-04-20T01:58:08;99210.91;;;10.44;100.00
8051;BME280;4068;42.158;24.732;2023-04-20T02:00:34;99216.69;;;10.49;100.00
8051;BME280;4068;42.158;24.732;2023-04-20T02:02:59;99206.72;;;10.42;100.00
8051;BME280;4068;42.158;24.732;2023-04-20T02:05:25;99172.50;;;10.17;100.00
8051;BME280;4068;42.158;24.732;2023-04-20T02:07:50;99206.31;;;10.25;100.00
8051;BME280;4068;42.158;24.732;2023-04-20T02:10:16;99209.66;;;10.27;100.00
8051;BME280;4068;42.158;24.732;2023-04-20T02:12:42;99189.47;;;10.26;100.00
8051;BME280;4068;42.158;24.732;2023-04-20T02:15:07;99206.97;;;10.39;100.00
8051;BME280;4068;42.158;24.732;2023-04-20T02:17:33;99220.56;;;10.45;100.00
8051;BME280;4068;42.158;24.732;2023-04-20T02:20:00;99187.25;;;10.31;100.00
8051;BME280;4068;42.158;24.732;2023-04-20T02:22:26;99214.34;;;10.56;100.00
8051;BME280;4068;42.158;24.732;2023-04-20T02:24:51;99214.72;;;10.51;100.00
8051;BME280;4068;42.158;24.732;2023-04-20T02:27:17;99221.59;;;10.54;100.00
8051;BME280;4068;42.158;24.732;2023-04-20T02:29:42;99224.09;;;10.56;100.00
8051;BME280;4068;42.158;24.732;2023-04-20T02:32:07;99210.91;;;10.44;100.00
8051;BME280;4068;42.158;24.732;2023-04-20T02:34:33;99232.91;;;10.56;100.00
8051;BME280;4068;42.158;24.732;2023-04-20T02:36:58;99226.56;;;10.47;100.00
8051;BME280;4068;42.158;24.732;2023-04-20T02:39:24;99225.66;;;10.37;100.00
8051;BME280;4068;42.158;24.732;2023-04-20T02:41:49;99225.16;;;10.43;100.00
8051;BME280;4068;42.158;24.732;2023-04-20T02:44:14;99230.56;;;10.42;100.00
8051;BME280;4068;42.158;24.732;2023-04-20T02:46:40;99222.19;;;10.36;100.00
8051;BME280;4068;42.158;24.732;2023-04-20T02:49:05;99234.66;;;10.46;100.00
8051;BME280;4068;42.158;24.732;2023-04-20T02:51:31;99231.44;;;10.42;100.00
8051;BME280;4068;42.158;24.732;2023-04-20T02:53:56;99221.38;;;10.46;100.00
8051;BME280;4068;42.158;24.732;2023-04-20T02:56:22;99199.00;;;10.17;100.00
8051;BME280;4068;42.158;24.732;2023-04-20T02:58:47;99228.59;;;10.34;100.00
8051;BME280;4068;42.158;24.732;2023-04-20T03:01:16;99206.19;;;10.27;100.00
8051;BME280;4068;42.158;24.732;2023-04-20T03:03:41;99218.81;;;10.34;100.00
8051;BME280;4068;42.158;24.732;2023-04-20T03:06:07;99229.41;;;10.34;100.00
8051;BME280;4068;42.158;24.732;2023-04-20T03:08:32;99226.03;;;10.32;100.00
8051;BME280;4068;42.158;24.732;2023-04-20T03:10:58;99225.69;;;10.26;100.00
8051;BME280;4068;42.158;24.732;2023-04-20T03:13:23;99232.69;;;10.27;100.00
8051;BME280;4068;42.158;24.732;2023-04-20T03:15:49;99228.63;;;10.23;100.00
8051;BME280;4068;42.158;24.732;2023-04-20T03:18:14;99232.22;;;10.22;100.00
8051;BME280;4068;42.158;24.732;2023-04-20T03:20:39;99219.63;;;10.14;100.00
8051;BME280;4068;42.158;24.732;2023-04-20T03:23:05;99230.56;;;10.21;100.00
8051;BME280;4068;42.158;24.732;2023-04-20T03:25:31;99230.56;;;10.21;100.00
8051;BME280;4068;42.158;24.732;2023-04-20T03:27:57;99228.53;;;10.13;100.00
8051;BME280;4068;42.158;24.732;2023-04-20T03:30:22;99232.19;;;10.12;100.00
8051;BME280;4068;42.158;24.732;2023-04-20T03:32:47;99231.66;;;10.18;100.00
8051;BME280;4068;42.158;24.732;2023-04-20T03:35:13;99213.78;;;9.99;100.00
8051;BME280;4068;42.158;24.732;2023-04-20T03:37:38;99214.56;;;9.90;100.00
8051;BME280;4068;42.158;24.732;2023-04-20T03:40:05;99212.44;;;9.83;100.00
8051;BME280;4068;42.158;24.732;2023-04-20T03:42:33;99219.75;;;9.91;100.00
8051;BME280;4068;42.158;24.732;2023-04-20T03:44:59;99210.63;;;9.84;100.00
8051;BME280;4068;42.158;24.732;2023-04-20T03:47:24;99220.53;;;10.03;100.00
8051;BME280;4068;42.158;24.732;2023-04-20T03:49:50;99235.78;;;10.11;100.00
8051;BME280;4068;42.158;24.732;2023-04-20T03:52:15;99223.25;;;10.13;100.00
8051;BME280;4068;42.158;24.732;2023-04-20T03:54:40;99230.31;;;10.24;100.00
8051;BME280;4068;42.158;24.732;2023-04-20T03:57:06;99229.78;;;10.30;100.00
8051;BME280;4068;42.158;24.732;2023-04-20T03:59:31;99177.16;;;10.04;100.00
8051;BME280;4068;42.158;24.732;2023-04-20T04:01:57;99226.25;;;10.41;100.00
8051;BME280;4068;42.158;24.732;2023-04-20T04:04:23;99222.94;;;10.48;100.00
8051;BME280;4068;42.158;24.732;2023-04-20T04:06:48;99237.88;;;10.70;100.00
8051;BME280;4068;42.158;24.732;2023-04-20T04:09:13;99232.50;;;10.82;100.00
8051;BME280;4068;42.158;24.732;2023-04-20T04:11:39;99247.63;;;11.01;100.00
8051;BME280;4068;42.158;24.732;2023-04-20T04:14:04;99254.81;;;11.20;100.00
8051;BME280;4068;42.158;24.732;2023-04-20T04:16:30;99256.53;;;11.31;100.00
8051;BME280;4068;42.158;24.732;2023-04-20T04:18:56;99258.53;;;11.48;100.00
8051;BME280;4068;42.158;24.732;2023-04-20T04:21:22;99262.03;;;11.58;100.00
8051;BME280;4068;42.158;24.732;2023-04-20T04:23:48;99264.59;;;11.70;100.00
8051;BME280;4068;42.158;24.732;2023-04-20T04:26:13;99250.34;;;11.71;100.00
8051;BME280;4068;42.158;24.732;2023-04-20T04:28:39;99271.63;;;11.90;100.00
8051;BME280;4068;42.158;24.732;2023-04-20T04:31:05;99265.34;;;12.01;100.00
8051;BME280;4068;42.158;24.732;2023-04-20T04:33:32;99274.56;;;12.17;100.00
8051;BME280;4068;42.158;24.732;2023-04-20T04:36:00;99273.03;;;12.24;100.00
8051;BME280;4068;42.158;24.732;2023-04-20T04:38:25;99243.09;;;12.22;100.00
8051;BME280;4068;42.158;24.732;2023-04-20T04:40:51;99257.91;;;12.44;100.00
8051;BME280;4068;42.158;24.732;2023-04-20T04:43:18;99262.38;;;12.53;100.00
8051;BME280;4068;42.158;24.732;2023-04-20T04:45:44;99254.25;;;12.55;100.00
8051;BME280;4068;42.158;24.732;2023-04-20T04:48:10;99270.34;;;12.53;100.00
8051;BME280;4068;42.158;24.732;2023-04-20T04:50:39;99248.13;;;12.45;100.00
8051;BME280;4068;42.158;24.732;2023-04-20T04:53:05;99228.69;;;12.34;100.00
8051;BME280;4068;42.158;24.732;2023-04-20T04:55:30;99263.50;;;12.51;100.00
8051;BME280;4068;42.158;24.732;2023-04-20T04:57:56;99261.81;;;12.50;100.00
8051;BME280;4068;42.158;24.732;2023-04-20T05:00:22;99260.00;;;12.50;100.00
8051;BME280;4068;42.158;24.732;2023-04-20T05:02:47;99260.16;;;12.49;100.00
8051;BME280;4068;42.158;24.732;2023-04-20T05:05:13;99266.88;;;12.53;100.00
8051;BME280;4068;42.158;24.732;2023-04-20T05:07:39;99269.53;;;12.53;100.00
8051;BME280;4068;42.158;24.732;2023-04-20T05:10:05;99263.19;;;12.54;100.00
8051;BME280;4068;42.158;24.732;2023-04-20T05:12:32;99247.41;;;12.42;100.00
8051;BME280;4068;42.158;24.732;2023-04-20T05:14:57;99269.78;;;12.59;100.00
8051;BME280;4068;42.158;24.732;2023-04-20T05:17:23;99272.25;;;12.71;100.00
8051;BME280;4068;42.158;24.732;2023-04-20T05:19:48;99271.13;;;12.83;100.00
8051;BME280;4068;42.158;24.732;2023-04-20T05:22:14;99249.13;;;12.81;100.00
8051;BME280;4068;42.158;24.732;2023-04-20T05:24:39;99255.66;;;12.97;100.00
8051;BME280;4068;42.158;24.732;2023-04-20T05:27:06;99274.66;;;13.11;100.00
8051;BME280;4068;42.158;24.732;2023-04-20T05:29:32;99267.31;;;13.23;100.00
8051;BME280;4068;42.158;24.732;2023-04-20T05:31:57;99273.03;;;13.38;100.00
8051;BME280;4068;42.158;24.732;2023-04-20T05:34:22;99247.44;;;13.55;100.00
8051;BME280;4068;42.158;24.732;2023-04-20T05:36:48;99276.28;;;13.78;100.00
8051;BME280;4068;42.158;24.732;2023-04-20T05:39:13;99285.06;;;14.06;98.76
8051;BME280;4068;42.158;24.732;2023-04-20T05:41:39;99282.72;;;14.21;97.37
8051;BME280;4068;42.158;24.732;2023-04-20T05:44:04;99281.47;;;14.33;97.68
8051;BME280;4068;42.158;24.732;2023-04-20T05:46:29;99287.16;;;14.57;93.98
8051;BME280;4068;42.158;24.732;2023-04-20T05:48:55;99281.97;;;14.73;91.80
8051;BME280;4068;42.158;24.732;2023-04-20T05:51:20;99253.81;;;14.79;91.26
8051;BME280;4068;42.158;24.732;2023-04-20T05:53:46;99279.47;;;14.98;90.91
8051;BME280;4068;42.158;24.732;2023-04-20T05:56:12;99267.03;;;14.89;90.11
8051;BME280;4068;42.158;24.732;2023-04-20T05:58:39;99270.09;;;14.94;89.85
8051;BME280;4068;42.158;24.732;2023-04-20T06:01:05;99245.13;;;14.77;89.56
8051;BME280;4068;42.158;24.732;2023-04-20T06:03:31;99244.44;;;14.75;88.68
8051;BME280;4068;42.158;24.732;2023-04-20T06:05:57;99276.31;;;15.02;87.72
8051;BME280;4068;42.158;24.732;2023-04-20T06:08:22;99261.97;;;15.12;87.29
8051;BME280;4068;42.158;24.732;2023-04-20T06:10:51;99269.53;;;15.16;86.67
8051;BME280;4068;42.158;24.732;2023-04-20T06:13:17;99265.31;;;15.06;86.34
8051;BME280;4068;42.158;24.732;2023-04-20T06:15:42;99269.88;;;15.22;87.03
8051;BME280;4068;42.158;24.732;2023-04-20T06:18:07;99282.44;;;15.29;86.18
8051;BME280;4068;42.158;24.732;2023-04-20T06:20:33;99280.47;;;15.40;85.89
8051;BME280;4068;42.158;24.732;2023-04-20T06:22:58;99245.59;;;15.41;84.92
8051;BME280;4068;42.158;24.732;2023-04-20T06:25:24;99274.38;;;15.64;85.56
8051;BME280;4068;42.158;24.732;2023-04-20T06:27:49;99274.56;;;15.70;86.04
8051;BME280;4068;42.158;24.732;2023-04-20T06:30:15;99276.28;;;15.80;84.77
8051;BME280;4068;42.158;24.732;2023-04-20T06:32:40;99273.31;;;15.91;85.24
8051;BME280;4068;42.158;24.732;2023-04-20T06:35:06;99261.75;;;15.82;85.29
8051;BME280;4068;42.158;24.732;2023-04-20T06:37:34;99268.63;;;16.01;83.00
8051;BME280;4068;42.158;24.732;2023-04-20T06:39:59;99271.97;;;16.12;82.66
8051;BME280;4068;42.158;24.732;2023-04-20T06:42:25;99269.50;;;16.27;82.50
8051;BME280;4068;42.158;24.732;2023-04-20T06:44:50;99275.03;;;16.33;81.80
8051;BME280;4068;42.158;24.732;2023-04-20T06:47:15;99276.66;;;16.34;81.25
8051;BME280;4068;42.158;24.732;2023-04-20T06:49:41;99275.16;;;16.48;80.78
8051;BME280;4068;42.158;24.732;2023-04-20T06:52:07;99275.34;;;16.47;81.83
8051;BME280;4068;42.158;24.732;2023-04-20T06:54:33;99274.19;;;16.58;82.44
8051;BME280;4068;42.158;24.732;2023-04-20T06:56:58;99267.13;;;16.56;79.74
8051;BME280;4068;42.158;24.732;2023-04-20T06:59:23;99265.63;;;16.54;79.86
8051;BME280;4068;42.158;24.732;2023-04-20T07:01:50;99245.22;;;16.53;80.86
8051;BME280;4068;42.158;24.732;2023-04-20T07:04:15;99268.31;;;16.70;80.08
8051;BME280;4068;42.158;24.732;2023-04-20T07:06:40;99255.25;;;16.59;78.71
8051;BME280;4068;42.158;24.732;2023-04-20T07:09:06;99245.91;;;16.38;78.95
8051;BME280;4068;42.158;24.732;2023-04-20T07:11:32;99272.00;;;16.45;80.02
8051;BME280;4068;42.158;24.732;2023-04-20T07:13:58;99258.63;;;16.28;79.77
8051;BME280;4068;42.158;24.732;2023-04-20T07:16:23;99266.31;;;16.48;81.26
8051;BME280;4068;42.158;24.732;2023-04-20T07:18:49;99264.97;;;16.52;80.37
8051;BME280;4068;42.158;24.732;2023-04-20T07:21:14;99265.16;;;16.50;79.89
8051;BME280;4068;42.158;24.732;2023-04-20T07:23:40;99267.31;;;16.47;78.92
8051;BME280;4068;42.158;24.732;2023-04-20T07:26:05;99261.13;;;16.46;80.31
8051;BME280;4068;42.158;24.732;2023-04-20T07:28:32;99258.28;;;16.48;80.03
8051;BME280;4068;42.158;24.732;2023-04-20T07:30:57;99236.88;;;16.39;78.37
8051;BME280;4068;42.158;24.732;2023-04-20T07:33:24;99273.50;;;16.64;79.01
8051;BME280;4068;42.158;24.732;2023-04-20T07:35:50;99263.28;;;16.59;77.50
8051;BME280;4068;42.158;24.732;2023-04-20T07:38:15;99262.78;;;16.55;79.55
8051;BME280;4068;42.158;24.732;2023-04-20T07:40:41;99233.22;;;16.41;79.70
8051;BME280;4068;42.158;24.732;2023-04-20T07:43:06;99258.13;;;16.49;79.95
8051;BME280;4068;42.158;24.732;2023-04-20T07:45:32;99246.56;;;16.57;79.23
8051;BME280;4068;42.158;24.732;2023-04-20T07:47:57;99267.78;;;16.75;79.89
8051;BME280;4068;42.158;24.732;2023-04-20T07:50:25;99263.06;;;16.85;79.59
8051;BME280;4068;42.158;24.732;2023-04-20T07:52:51;99250.03;;;16.82;79.54
8051;BME280;4068;42.158;24.732;2023-04-20T07:55:16;99247.38;;;16.90;78.80
8051;BME280;4068;42.158;24.732;2023-04-20T07:57:42;99253.81;;;17.04;78.88
8051;BME280;4068;42.158;24.732;2023-04-20T08:00:08;99262.69;;;17.13;79.24
8051;BME280;4068;42.158;24.732;2023-04-20T08:02:34;99262.19;;;17.10;77.43
8051;BME280;4068;42.158;24.732;2023-04-20T08:05:03;99259.22;;;16.96;77.77
8051;BME280;4068;42.158;24.732;2023-04-20T08:07:29;99250.69;;;16.84;78.24
8051;BME280;4068;42.158;24.732;2023-04-20T08:09:54;99258.25;;;16.89;78.61
8051;BME280;4068;42.158;24.732;2023-04-20T08:12:21;99245.66;;;16.98;79.92
8051;BME280;4068;42.158;24.732;2023-04-20T08:14:46;99260.22;;;17.03;77.63
8051;BME280;4068;42.158;24.732;2023-04-20T08:17:12;99230.56;;;17.05;79.02
8051;BME280;4068;42.158;24.732;2023-04-20T08:19:37;99247.59;;;17.20;78.87
8051;BME280;4068;42.158;24.732;2023-04-20T08:22:04;99253.97;;;17.19;78.26
8051;BME280;4068;42.158;24.732;2023-04-20T08:24:29;99252.75;;;17.30;76.17
8051;BME280;4068;42.158;24.732;2023-04-20T08:26:55;99257.78;;;17.25;77.38
8051;BME280;4068;42.158;24.732;2023-04-20T08:29:20;99240.03;;;17.24;77.22
8051;BME280;4068;42.158;24.732;2023-04-20T08:31:46;99248.06;;;17.24;78.63
8051;BME280;4068;42.158;24.732;2023-04-20T08:34:12;99267.25;;;17.44;77.40
8051;BME280;4068;42.158;24.732;2023-04-20T08:36:37;99234.25;;;17.43;77.64
8051;BME280;4068;42.158;24.732;2023-04-20T08:39:07;99239.97;;;17.72;79.29
8051;BME280;4068;42.158;24.732;2023-04-20T08:41:33;99243.56;;;17.87;78.41
8051;BME280;4068;42.158;24.732;2023-04-20T08:43:59;99246.63;;;18.07;77.92
8051;BME280;4068;42.158;24.732;2023-04-20T08:46:24;99248.88;;;18.19;73.61
8051;BME280;4068;42.158;24.732;2023-04-20T08:48:52;99248.66;;;18.28;72.37
8051;BME280;4068;42.158;24.732;2023-04-20T08:51:17;99237.19;;;18.35;68.63
8051;BME280;4068;42.158;24.732;2023-04-20T08:53:42;99223.06;;;18.56;69.02
8051;BME280;4068;42.158;24.732;2023-04-20T08:56:08;99229.47;;;18.85;66.20
8051;BME280;4068;42.158;24.732;2023-04-20T08:58:34;99236.22;;;18.80;61.59
8051;BME280;4068;42.158;24.732;2023-04-20T09:00:59;99228.75;;;19.06;61.62
8051;BME280;4068;42.158;24.732;2023-04-20T09:03:36;99225.94;;;19.29;60.65
8051;BME280;4068;42.158;24.732;2023-04-20T09:06:05;99211.16;;;19.55;60.48
8051;BME280;4068;42.158;24.732;2023-04-20T09:08:39;99218.13;;;20.07;60.23
8051;BME280;4068;42.158;24.732;2023-04-20T09:11:05;99214.63;;;20.35;58.96
8051;BME280;4068;42.158;24.732;2023-04-20T09:13:31;99228.34;;;20.40;55.20
8051;BME280;4068;42.158;24.732;2023-04-20T09:15:56;99212.75;;;20.07;55.50
8051;BME280;4068;42.158;24.732;2023-04-20T09:18:22;99211.72;;;19.87;55.22
8051;BME280;4068;42.158;24.732;2023-04-20T09:20:49;99213.88;;;19.98;55.74
8051;BME280;4068;42.158;24.732;2023-04-20T09:23:16;99220.53;;;20.02;56.32
8051;BME280;4068;42.158;24.732;2023-04-20T09:25:44;99215.13;;;19.95;55.42
8051;BME280;4068;42.158;24.732;2023-04-20T09:28:11;99211.03;;;19.99;55.99
8051;BME280;4068;42.158;24.732;2023-04-20T09:30:45;99210.72;;;19.73;56.79
8051;BME280;4068;42.158;24.732;2023-04-20T09:33:11;99200.56;;;19.90;56.13
8051;BME280;4068;42.158;24.732;2023-04-20T09:35:39;99190.63;;;20.12;54.62
8051;BME280;4068;42.158;24.732;2023-04-20T09:38:07;99185.69;;;20.15;55.17
8051;BME280;4068;42.158;24.732;2023-04-20T09:40:33;99198.44;;;20.28;53.40
8051;BME280;4068;42.158;24.732;2023-04-20T09:43:03;99200.78;;;19.88;54.08
8051;BME280;4068;42.158;24.732;2023-04-20T09:45:31;99201.47;;;19.60;55.40
8051;BME280;4068;42.158;24.732;2023-04-20T09:47:58;99199.19;;;19.57;55.90
8051;BME280;4068;42.158;24.732;2023-04-20T09:50:24;99181.38;;;19.78;54.00
8051;BME280;4068;42.158;24.732;2023-04-20T09:52:50;99190.63;;;20.12;53.33
8051;BME280;4068;42.158;24.732;2023-04-20T09:55:16;99192.16;;;20.21;53.50
8051;BME280;4068;42.158;24.732;2023-04-20T09:57:43;99175.75;;;20.44;53.02
8051;BME280;4068;42.158;24.732;2023-04-20T10:00:09;99187.66;;;20.92;52.09
8051;BME280;4068;42.158;24.732;2023-04-20T10:02:36;99173.28;;;21.19;49.99
8051;BME280;4068;42.158;24.732;2023-04-20T10:05:02;99168.16;;;21.38;48.40
8051;BME280;4068;42.158;24.732;2023-04-20T10:07:30;99175.28;;;21.52;48.07
8051;BME280;4068;42.158;24.732;2023-04-20T10:12:33;99146.00;;;21.56;47.57
8051;BME280;4068;42.158;24.732;2023-04-20T10:15:10;99146.66;;;21.58;47.14
8051;BME280;4068;42.158;24.732;2023-04-20T10:17:36;99162.44;;;21.68;47.11
8051;BME280;4068;42.158;24.732;2023-04-20T10:20:01;99152.91;;;21.85;45.91
8051;BME280;4068;42.158;24.732;2023-04-20T10:22:30;99160.59;;;21.95;47.18
8051;BME280;4068;42.158;24.732;2023-04-20T10:25:14;99149.19;;;22.06;45.81
8051;BME280;4068;42.158;24.732;2023-04-20T10:27:57;99135.25;;;22.23;46.05
8051;BME280;4068;42.158;24.732;2023-04-20T10:30:24;99143.22;;;22.90;44.85
8051;BME280;4068;42.158;24.732;2023-04-20T10:35:27;99152.72;;;23.51;43.43
8051;BME280;4068;42.158;24.732;2023-04-20T10:37:54;99141.72;;;23.78;40.07
8051;BME280;4068;42.158;24.732;2023-04-20T10:40:26;99156.25;;;23.84;38.21
8051;BME280;4068;42.158;24.732;2023-04-20T10:42:51;99148.63;;;24.06;37.41
8051;BME280;4068;42.158;24.732;2023-04-20T10:45:17;99151.66;;;24.41;38.50
8051;BME280;4068;42.158;24.732;2023-04-20T10:47:42;99152.16;;;24.32;38.08
8051;BME280;4068;42.158;24.732;2023-04-20T10:50:11;99154.91;;;24.00;39.42
8051;BME280;4068;42.158;24.732;2023-04-20T10:52:39;99147.16;;;23.78;39.09
8051;BME280;4068;42.158;24.732;2023-04-20T10:55:06;99160.19;;;23.17;40.65
8051;BME280;4068;42.158;24.732;2023-04-20T10:57:32;99142.91;;;22.53;42.28
8051;BME280;4068;42.158;24.732;2023-04-20T10:59:58;99169.53;;;22.02;47.10
8051;BME280;4068;42.158;24.732;2023-04-20T11:02:24;99176.84;;;20.00;65.91
8051;BME280;4068;42.158;24.732;2023-04-20T11:04:49;99177.34;;;17.65;78.96
8051;BME280;4068;42.158;24.732;2023-04-20T11:07:15;99159.16;;;16.08;100.00
8051;BME280;4068;42.158;24.732;2023-04-20T11:09:41;99189.84;;;15.46;100.00
8051;BME280;4068;42.158;24.732;2023-04-20T11:12:09;99167.59;;;14.87;100.00
8051;BME280;4068;42.158;24.732;2023-04-20T11:14:48;99169.75;;;14.57;100.00
8051;BME280;4068;42.158;24.732;2023-04-20T11:17:17;99162.72;;;14.21;100.00
8051;BME280;4068;42.158;24.732;2023-04-20T11:19:42;99147.69;;;13.94;100.00
8051;BME280;4068;42.158;24.732;2023-04-20T11:22:08;99168.66;;;14.15;100.00
8051;BME280;4068;42.158;24.732;2023-04-20T11:24:33;99162.31;;;13.90;100.00
8051;BME280;4068;42.158;24.732;2023-04-20T11:27:01;99148.53;;;14.21;100.00
8051;BME280;4068;42.158;24.732;2023-04-20T11:29:33;99149.78;;;14.35;100.00
8051;BME280;4068;42.158;24.732;2023-04-20T11:32:10;99142.63;;;14.35;100.00
8051;BME280;4068;42.158;24.732;2023-04-20T11:34:37;99153.22;;;14.53;100.00
8051;BME280;4068;42.158;24.732;2023-04-20T11:37:10;99124.25;;;14.58;100.00
8051;BME280;4068;42.158;24.732;2023-04-20T11:39:38;99134.84;;;14.76;100.00
8051;BME280;4068;42.158;24.732;2023-04-20T11:42:04;99129.50;;;14.68;100.00
8051;BME280;4068;42.158;24.732;2023-04-20T11:44:29;99127.41;;;14.88;100.00
8051;BME280;4068;42.158;24.732;2023-04-20T11:46:55;99102.06;;;14.92;100.00
8051;BME280;4068;42.158;24.732;2023-04-20T11:49:27;99114.00;;;15.31;100.00
8051;BME280;4068;42.158;24.732;2023-04-20T11:51:53;99113.66;;;15.50;100.00
8051;BME280;4068;42.158;24.732;2023-04-20T11:54:18;99125.41;;;15.91;100.00
8051;BME280;4068;42.158;24.732;2023-04-20T11:56:44;99115.13;;;16.35;100.00
8051;BME280;4068;42.158;24.732;2023-04-20T11:59:11;99086.81;;;16.58;100.00
8051;BME280;4068;42.158;24.732;2023-04-20T12:01:38;99101.41;;;16.95;100.00
8051;BME280;4068;42.158;24.732;2023-04-20T12:04:03;99097.75;;;17.19;100.00
8051;BME280;4068;42.158;24.732;2023-04-20T12:06:29;99118.22;;;17.58;100.00
8051;BME280;4068;42.158;24.732;2023-04-20T12:08:56;99107.91;;;17.93;100.00
8051;BME280;4068;42.158;24.732;2023-04-20T12:11:22;99111.56;;;18.15;100.00
8051;BME280;4068;42.158;24.732;2023-04-20T12:13:48;99097.50;;;18.13;100.00
8051;BME280;4068;42.158;24.732;2023-04-20T12:16:13;99109.81;;;18.37;88.81
8051;BME280;4068;42.158;24.732;2023-04-20T12:18:39;99096.00;;;18.70;80.22
8051;BME280;4068;42.158;24.732;2023-04-20T12:21:05;99091.72;;;18.91;86.01
8051;BME280;4068;42.158;24.732;2023-04-20T12:23:30;99090.78;;;18.84;91.64
8051;BME280;4068;42.158;24.732;2023-04-20T12:25:57;99085.72;;;18.89;81.54
8051;BME280;4068;42.158;24.732;2023-04-20T12:28:22;99055.94;;;19.05;66.72
8051;BME280;4068;42.158;24.732;2023-04-20T12:30:48;99078.50;;;19.26;70.15
8051;BME280;4068;42.158;24.732;2023-04-20T12:33:13;99085.72;;;19.69;60.49
8051;BME280;4068;42.158;24.732;2023-04-20T12:35:38;99084.53;;;19.99;57.36
8051;BME280;4068;42.158;24.732;2023-04-20T12:38:04;99044.53;;;19.90;56.13
8051;BME280;4068;42.158;24.732;2023-04-20T12:40:30;99078.09;;;19.94;54.56
8051;BME280;4068;42.158;24.732;2023-04-20T12:42:55;99048.84;;;19.62;55.81
8051;BME280;4068;42.158;24.732;2023-04-20T12:45:20;99042.88;;;19.67;55.20
8051;BME280;4068;42.158;24.732;2023-04-20T12:47:46;99036.31;;;19.76;54.05
8051;BME280;4068;42.158;24.732;2023-04-20T12:50:11;99072.19;;;19.83;53.12
8051;BME280;4068;42.158;24.732;2023-04-20T12:52:37;99050.19;;;20.02;52.75
8051;BME280;4068;42.158;24.732;2023-04-20T12:55:04;99055.38;;;20.38;51.76
8051;BME280;4068;42.158;24.732;2023-04-20T12:57:30;99052.78;;;20.58;53.21
8051;BME280;4068;42.158;24.732;2023-04-20T12:59:55;99059.34;;;20.91;51.50
8051;BME280;4068;42.158;24.732;2023-04-20T13:02:21;99058.38;;;21.05;50.96
8051;BME280;4068;42.158;24.732;2023-04-20T13:04:46;99050.72;;;21.15;48.70
8051;BME280;4068;42.158;24.732;2023-04-20T13:07:12;99038.69;;;21.18;48.59